.
WxDataArchive / Data Records for 2011-05-28
2011-05-27 May 2011 2011-05-29

Data Records for Saturday, 28 May 2011

Time	Temp	Chill	HIndex	Humid	Dewpt	 Wind 	HiWind	WindDir	Rain 	Barom 
-----	----	-----	------	-----	-----	------	------	-------	-----	----- 
00:00	55.9	55.9	55.9	93	53.9	0	0	---	0.00	29.906 
00:05	55.9	55.9	55.9	93	53.9	0	0	---	0.00	29.906 
00:10	55.9	55.9	55.9	93	53.9	0	0	---	0.00	29.906 
00:15	55.9	55.9	55.9	93	53.9	0	0	---	0.00	29.900 
00:20	55.9	55.9	55.9	93	53.9	0	0	---	0.00	29.900 
00:25	55.9	55.9	55.9	93	53.9	0	0	---	0.00	29.900 
00:30	55.9	55.9	55.9	93	53.9	0	0	---	0.00	29.900 
00:35	55.9	55.9	55.9	93	53.9	0	0	---	0.00	29.900 
00:40	55.9	55.9	55.9	93	53.9	0	0	---	0.00	29.900 
00:45	55.9	55.9	55.9	93	53.9	0	0	---	0.00	29.888 
00:50	55.9	55.9	55.9	94	54.2	0	0	---	0.00	29.888 
00:55	55.9	55.9	55.9	94	54.2	0	0	---	0.00	29.888 
01:00	55.9	55.9	55.9	94	54.2	0	0	---	0.00	29.885 
01:05	55.9	55.9	55.9	94	54.2	0	0	---	0.00	29.885 
01:10	55.9	55.9	55.9	94	54.2	0	1	22	0.00	29.885 
01:15	56.0	56.0	56.0	94	54.3	0	2	22	0.00	29.878 
01:20	56.0	56.0	56.0	94	54.3	1	3	22	0.00	29.878 
01:25	56.0	56.0	56.0	94	54.3	0	3	68	0.00	29.878 
01:30	55.9	55.9	55.9	94	54.2	0	0	---	0.00	29.882 
01:35	55.9	55.9	55.9	94	54.2	0	0	---	0.00	29.882 
01:40	55.9	55.9	55.9	94	54.2	0	0	---	0.00	29.882 
01:45	55.9	55.9	55.9	94	54.2	0	1	68	0.00	29.875 
01:50	56.0	56.0	56.0	94	54.3	0	1	68	0.00	29.875 
01:55	56.0	56.0	56.0	94	54.3	0	0	---	0.00	29.875 
02:00	56.0	56.0	56.0	95	54.6	0	1	68	0.00	29.869 
02:05	56.0	56.0	56.0	95	54.6	0	2	68	0.00	29.869 
02:10	56.0	56.0	56.0	95	54.6	0	1	68	0.00	29.869 
02:15	56.0	56.0	56.0	95	54.6	0	0	---	0.00	29.883 
02:20	56.2	56.2	56.2	95	54.8	0	0	---	0.00	29.883 
02:25	56.2	56.2	56.2	95	54.8	0	0	---	0.00	29.883 
02:30	56.2	56.2	56.2	95	54.8	0	0	---	0.00	29.882 
02:35	56.2	56.2	56.2	95	54.8	0	0	---	0.00	29.882 
02:40	56.2	56.2	56.2	95	54.8	0	1	68	0.00	29.882 
02:45	56.3	56.3	56.3	95	54.9	0	1	68	0.00	29.877 
02:50	56.3	56.3	56.3	95	54.9	0	1	68	0.00	29.877 
02:55	56.3	56.3	56.3	95	54.9	0	1	68	0.00	29.877 
03:00	56.3	56.3	56.3	95	54.9	0	2	68	0.00	29.873 
03:05	56.3	56.3	56.3	95	54.9	0	0	---	0.00	29.873 
03:10	56.3	56.3	56.3	95	54.9	0	0	---	0.00	29.873 
03:15	56.3	56.3	56.3	95	54.9	0	0	---	0.00	29.874 
03:20	56.3	56.3	56.3	95	54.9	0	0	---	0.00	29.874 
03:25	56.3	56.3	56.3	95	54.9	0	0	---	0.00	29.874 
03:30	56.3	56.3	56.3	95	54.9	0	0	---	0.00	29.871 
03:35	56.3	56.3	56.3	95	54.9	0	0	---	0.00	29.871 
03:40	56.3	56.3	56.3	95	54.9	0	0	---	0.00	29.871 
03:45	56.3	56.3	56.3	95	54.9	0	0	---	0.00	29.867 
03:50	56.3	56.3	56.3	95	54.9	0	0	---	0.00	29.867 
03:55	56.2	56.2	56.2	95	54.8	0	1	68	0.00	29.867 
04:00	56.2	56.2	56.2	95	54.8	0	0	---	0.00	29.865 
04:05	56.2	56.2	56.2	95	54.8	0	1	68	0.00	29.865 
04:10	56.2	56.2	56.2	95	54.8	0	0	---	0.00	29.865 
04:15	56.2	56.2	56.2	95	54.8	0	1	68	0.00	29.861 
04:20	56.2	56.2	56.2	95	54.8	0	0	---	0.00	29.861 
04:25	56.2	56.2	56.2	95	54.8	0	0	---	0.00	29.861 
04:30	56.2	56.2	56.2	95	54.8	0	0	---	0.00	29.868 
04:35	56.2	56.2	56.2	95	54.8	0	0	---	0.00	29.868 
04:40	56.2	56.2	56.2	95	54.8	0	0	---	0.00	29.868 
04:45	56.2	56.2	56.2	95	54.8	0	0	---	0.00	29.868 
04:50	56.2	56.2	56.2	95	54.8	0	0	---	0.00	29.868 
04:55	56.2	56.2	56.2	95	54.8	0	0	---	0.00	29.868 
05:00	56.2	56.2	56.2	95	54.8	0	0	---	0.00	29.868 
05:05	56.2	56.2	56.2	95	54.8	0	1	68	0.00	29.868 
05:10	56.3	56.3	56.3	95	54.9	0	1	68	0.00	29.868 
05:15	56.3	56.3	56.3	95	54.9	0	1	68	0.00	29.868 
05:20	56.3	56.3	56.3	95	54.9	0	1	68	0.00	29.868 
05:25	56.3	56.3	56.3	95	54.9	0	1	68	0.00	29.868 
05:30	56.5	56.5	56.5	95	55.1	0	1	68	0.00	29.867 
05:35	56.5	56.5	56.5	95	55.1	0	0	---	0.00	29.867 
05:40	56.5	56.5	56.5	95	55.1	0	0	---	0.00	29.867 
05:45	56.5	56.5	56.5	95	55.1	0	0	---	0.00	29.868 
05:50	56.5	56.5	56.5	95	55.1	0	1	68	0.00	29.868 
05:55	56.5	56.5	56.5	95	55.1	0	0	---	0.00	29.868 
06:00	56.3	56.3	56.3	95	54.9	0	1	68	0.00	29.868 
06:05	56.3	56.3	56.3	95	54.9	0	2	68	0.00	29.868 
06:10	56.3	56.3	56.3	95	54.9	0	0	---	0.00	29.868 
06:15	56.3	56.3	56.3	95	54.9	0	0	---	0.00	29.871 
06:20	56.5	56.5	56.5	95	55.1	0	0	---	0.00	29.871 
06:25	56.5	56.5	56.5	95	55.1	0	0	---	0.00	29.871 
06:30	56.5	56.5	56.5	96	55.4	0	1	68	0.00	29.876 
06:35	56.5	56.5	56.5	95	55.1	0	0	---	0.00	29.876 
06:40	56.5	56.5	56.5	96	55.4	0	0	---	0.00	29.876 
06:45	56.6	56.6	56.6	96	55.5	0	0	---	0.00	29.876 
06:50	56.6	56.6	56.6	95	55.2	0	1	202	0.00	29.876 
06:55	56.6	56.6	56.6	96	55.5	0	1	202	0.00	29.876 
07:00	56.7	56.7	56.7	96	55.6	0	2	202	0.00	29.876 
07:05	56.7	56.7	56.7	95	55.3	0	1	202	0.00	29.876 
07:10	56.7	56.7	56.7	95	55.3	0	0	---	0.00	29.876 
07:15	56.7	56.7	56.7	95	55.3	0	0	---	0.00	29.880 
07:20	56.7	56.7	56.7	95	55.3	0	1	202	0.00	29.880 
07:25	56.9	56.9	56.9	95	55.5	0	0	---	0.00	29.880 
07:30	56.9	56.9	56.9	95	55.5	0	1	202	0.00	29.886 
07:35	57.0	57.0	57.0	95	55.6	0	0	---	0.00	29.886 
07:40	57.0	57.0	57.0	95	55.6	0	0	---	0.00	29.886 
07:45	57.0	57.0	57.0	95	55.6	0	2	202	0.00	29.876 
07:50	57.0	57.0	57.0	95	55.6	0	0	---	0.00	29.876 
07:55	57.2	57.2	57.2	95	55.8	0	2	202	0.00	29.876 
08:00	57.3	57.3	57.3	94	55.6	0	2	202	0.00	29.882 
08:05	57.3	57.3	57.3	94	55.6	0	1	202	0.00	29.882 
08:10	57.5	57.5	57.5	94	55.8	0	2	202	0.00	29.882 
08:15	57.5	57.5	57.5	94	55.8	0	1	202	0.00	29.882 
08:20	57.6	57.6	57.6	94	55.9	0	2	180	0.00	29.882 
08:25	57.8	57.8	57.8	93	55.8	0	1	180	0.00	29.882 
08:30	58.1	58.1	58.1	93	56.1	0	1	180	0.00	29.885 
08:35	58.1	58.1	58.1	92	55.8	0	1	180	0.00	29.885 
08:40	58.1	58.1	58.1	92	55.8	0	1	180	0.00	29.885 
08:45	58.1	58.1	58.1	91	55.5	0	2	248	0.00	29.883 
08:50	58.0	58.0	58.0	91	55.4	1	3	315	0.00	29.883 
08:55	58.1	58.1	58.1	90	55.2	0	1	0	0.00	29.883 
09:00	58.1	58.1	58.1	90	55.2	0	2	45	0.00	29.885 
09:05	58.1	58.1	58.1	89	54.9	1	3	270	0.00	29.885 
09:10	58.1	58.1	58.1	89	54.9	0	3	292	0.00	29.885 
09:15	58.3	58.3	58.3	88	54.8	0	2	292	0.00	29.900 
09:20	58.3	58.3	58.3	88	54.8	0	3	270	0.00	29.900 
09:25	58.3	58.3	58.3	88	54.8	1	3	270	0.00	29.900 
09:30	58.1	58.1	58.1	88	54.6	1	3	292	0.00	29.902 
09:35	58.3	58.3	58.3	87	54.4	0	2	292	0.00	29.902 
09:40	58.3	58.3	58.3	87	54.4	1	3	292	0.00	29.902 
09:45	58.4	58.4	58.4	87	54.5	1	3	292	0.00	29.888 
09:50	58.6	58.6	58.6	87	54.7	0	2	225	0.00	29.888 
09:55	58.7	58.7	58.7	86	54.5	0	2	225	0.00	29.888 
10:00	58.7	58.7	58.7	86	54.5	1	3	292	0.00	29.898 
10:05	58.7	58.7	58.7	86	54.5	0	2	270	0.00	29.898 
10:10	58.9	58.9	58.9	86	54.7	1	3	270	0.00	29.898 
10:15	58.7	58.7	58.7	85	54.2	1	5	270	0.00	29.903 
10:20	58.7	58.7	58.7	85	54.2	1	4	270	0.00	29.903 
10:25	58.7	58.7	58.7	85	54.2	0	3	270	0.00	29.903 
10:30	58.7	58.7	58.7	85	54.2	0	1	270	0.00	29.911 
10:35	58.7	58.7	58.7	85	54.2	0	2	270	0.00	29.911 
10:40	58.6	58.6	58.6	85	54.1	0	2	270	0.00	29.911 
10:45	58.6	58.6	58.6	85	54.1	1	3	270	0.00	29.915 
10:50	58.4	58.4	58.4	85	53.9	1	3	270	0.00	29.915 
10:55	58.6	58.6	58.6	85	54.1	0	1	270	0.00	29.915 
11:00	58.7	58.7	58.7	86	54.5	0	1	270	0.00	29.914 
11:05	59.0	59.0	59.0	85	54.5	0	2	270	0.00	29.914 
11:10	59.2	59.2	59.2	84	54.4	0	2	270	0.00	29.914 
11:15	59.3	59.3	59.3	84	54.5	0	1	270	0.00	29.908 
11:20	59.3	59.3	59.3	83	54.1	1	3	270	0.00	29.908 
11:25	59.9	59.9	59.9	83	54.7	0	2	270	0.00	29.908 
11:30	60.4	60.4	60.4	81	54.5	1	4	270	0.00	29.878 
11:35	61.2	61.2	61.2	81	55.3	0	2	112	0.00	29.878 
11:40	61.5	61.5	61.5	79	54.9	0	3	112	0.00	29.878 
11:45	61.5	61.5	61.5	78	54.6	1	4	90	0.00	29.864 
11:50	61.3	61.3	61.3	79	54.7	1	4	90	0.00	29.864 
11:55	61.3	61.3	61.3	80	55.1	1	4	90	0.00	29.864 
12:00	61.3	61.3	61.3	80	55.1	1	6	90	0.00	29.886 
12:05	61.3	61.3	61.3	79	54.7	1	5	248	0.00	29.886 
12:10	61.3	61.3	61.3	81	55.4	0	4	45	0.00	29.886 
12:15	61.3	61.3	61.3	79	54.7	1	3	270	0.00	29.880 
12:20	61.3	61.3	61.3	80	55.1	1	4	90	0.00	29.880 
12:25	61.5	61.5	61.5	80	55.3	1	3	90	0.00	29.880 
12:30	61.6	61.6	61.6	80	55.4	1	3	90	0.00	29.865 
12:35	61.6	61.6	61.6	80	55.4	1	6	270	0.00	29.865 
12:40	61.6	61.6	61.6	80	55.4	1	5	68	0.00	29.865 
12:45	61.6	61.6	61.6	80	55.4	1	4	292	0.00	29.854 
12:50	61.6	61.6	61.6	80	55.4	1	3	292	0.00	29.854 
12:55	61.6	61.6	61.6	80	55.4	1	4	68	0.00	29.854 
13:00	61.8	61.8	61.8	80	55.6	1	4	112	0.00	29.851 
13:05	62.0	62.0	62.0	81	56.1	1	4	68	0.00	29.851 
13:10	62.1	62.1	62.1	80	55.9	1	4	270	0.00	29.851 
13:15	62.3	62.3	62.3	79	55.7	1	3	68	0.00	29.863 
13:20	62.3	62.3	62.3	78	55.3	2	9	68	0.00	29.863 
13:25	62.4	62.4	62.4	78	55.4	1	4	68	0.00	29.863 
13:30	62.9	62.9	62.9	79	56.3	2	5	270	0.00	29.861 
13:35	63.2	63.2	63.2	78	56.2	1	3	270	0.00	29.861 
13:40	63.7	63.7	63.7	76	56.0	1	6	270	0.00	29.861 
13:45	64.2	64.2	64.2	77	56.8	1	4	90	0.00	29.854 
13:50	64.5	64.5	64.5	75	56.4	2	6	45	0.00	29.854 
13:55	65.0	65.0	65.0	76	57.2	1	4	202	0.00	29.854 
14:00	65.2	65.2	65.2	73	56.3	1	3	270	0.00	29.854 
14:05	65.2	65.2	65.2	73	56.3	1	5	270	0.00	29.854 
14:10	65.2	65.2	65.2	74	56.7	1	5	90	0.00	29.854 
14:15	65.3	65.3	65.3	74	56.8	1	4	90	0.00	29.852 
14:20	66.0	66.0	66.0	74	57.5	1	4	248	0.00	29.852 
14:25	66.3	66.3	66.3	72	57.0	1	4	248	0.00	29.852 
14:30	66.4	66.4	66.4	71	56.7	2	6	112	0.00	29.844 
14:35	66.9	66.9	66.9	71	57.2	1	3	248	0.00	29.844 
14:40	67.9	67.9	67.9	72	58.5	1	7	270	0.00	29.844 
14:45	67.8	67.8	67.8	70	57.6	2	7	68	0.00	29.842 
14:50	67.6	67.6	67.6	71	57.9	1	4	270	0.00	29.842 
14:55	67.3	67.3	67.3	72	58.0	2	5	292	0.00	29.842 
15:00	66.9	66.9	66.9	71	57.2	2	4	248	0.00	29.868 
15:05	67.3	67.3	67.3	72	58.0	1	3	292	0.00	29.868 
15:10	67.6	67.6	67.6	71	57.9	1	5	292	0.00	29.868 
15:15	67.8	67.8	67.8	69	57.2	2	6	248	0.00	29.883 
15:20	67.6	67.6	67.6	68	56.7	2	5	270	0.00	29.883 
15:25	67.3	67.3	67.3	69	56.8	1	3	270	0.00	29.883 
15:30	66.9	66.9	66.9	70	56.8	2	5	270	0.00	29.890 
15:35	66.9	66.9	66.9	70	56.8	1	3	270	0.00	29.890 
15:40	66.9	66.9	66.9	71	57.2	1	5	270	0.00	29.890 
15:45	67.1	67.1	67.1	73	58.1	1	2	270	0.00	29.902 
15:50	67.1	67.1	67.1	71	57.4	2	4	270	0.00	29.902 
15:55	67.1	67.1	67.1	72	57.8	1	3	270	0.00	29.902 
16:00	67.3	67.3	67.3	71	57.6	1	2	270	0.00	29.890 
16:05	67.1	67.1	67.1	72	57.8	0	2	270	0.00	29.890 
16:10	67.1	67.1	67.1	72	57.8	1	3	270	0.00	29.890 
16:15	66.8	66.8	66.8	71	57.1	0	2	270	0.00	29.881 
16:20	66.6	66.6	66.6	72	57.3	0	2	270	0.00	29.881 
16:25	66.6	66.6	66.6	72	57.3	0	2	270	0.00	29.881 
16:30	66.4	66.4	66.4	72	57.1	0	1	270	0.00	29.891 
16:35	66.4	66.4	66.4	72	57.1	0	2	270	0.00	29.891 
16:40	66.6	66.6	66.6	72	57.3	0	2	270	0.00	29.891 
16:45	66.4	66.4	66.4	71	56.7	0	2	270	0.00	29.878 
16:50	66.4	66.4	66.4	72	57.1	0	3	270	0.00	29.878 
16:55	66.4	66.4	66.4	73	57.5	0	1	270	0.00	29.878 
17:00	66.4	66.4	66.4	73	57.5	0	2	270	0.00	29.860 
17:05	66.8	66.8	66.8	73	57.9	1	3	270	0.00	29.860 
17:10	66.9	66.9	66.9	74	58.3	0	1	270	0.00	29.860 
17:15	66.9	66.9	66.9	74	58.3	0	1	270	0.00	29.868 
17:20	67.1	67.1	67.1	75	58.9	0	2	270	0.00	29.868 
17:25	67.3	67.3	67.3	74	58.7	1	4	270	0.00	29.868 
17:30	67.1	67.1	67.1	73	58.1	1	3	90	0.00	29.868 
17:35	66.9	66.9	66.9	73	58.0	1	2	90	0.00	29.868 
17:40	66.9	66.9	66.9	74	58.3	0	0	---	0.00	29.868 
17:45	66.8	66.8	66.8	75	58.6	0	1	90	0.00	29.872 
17:50	66.6	66.6	66.6	76	58.8	0	0	---	0.00	29.872 
17:55	66.4	66.4	66.4	76	58.6	0	0	---	0.00	29.872 
18:00	66.3	66.3	66.3	77	58.9	0	0	---	0.00	29.891 
18:05	66.1	66.1	66.1	77	58.7	0	0	---	0.00	29.891 
18:10	65.8	65.8	65.8	78	58.7	0	0	---	0.00	29.891 
18:15	65.6	65.6	65.6	81	59.6	0	2	90	0.01	29.880 
18:20	65.5	65.5	65.5	82	59.9	0	2	90	0.00	29.880 
18:25	65.0	65.0	65.0	83	59.7	0	0	---	0.00	29.880 
18:30	64.7	64.7	64.7	85	60.1	0	0	---	0.01	29.862 
18:35	64.3	64.3	64.3	86	60.0	0	0	---	0.01	29.862 
18:40	64.0	64.0	64.0	87	60.0	0	0	---	0.01	29.862 
18:45	63.9	63.9	63.9	89	60.6	1	2	90	0.02	29.844 
18:50	63.5	63.5	63.5	90	60.5	0	2	90	0.00	29.844 
18:55	63.2	63.2	63.2	90	60.2	0	0	---	0.01	29.844 
19:00	63.2	63.2	63.2	91	60.5	0	1	90	0.01	29.854 
19:05	63.1	63.1	63.1	92	60.7	0	0	---	0.00	29.854 
19:10	62.9	62.9	62.9	92	60.5	0	0	---	0.01	29.854 
19:15	62.9	62.9	62.9	92	60.5	0	1	90	0.00	29.844 
19:20	62.7	62.7	62.7	92	60.3	0	1	90	0.01	29.844 
19:25	62.6	62.6	62.6	92	60.2	0	2	90	0.00	29.844 
19:30	62.6	62.6	62.6	93	60.5	0	0	---	0.00	29.857 
19:35	62.4	62.4	62.4	93	60.3	0	0	---	0.00	29.857 
19:40	62.4	62.4	62.4	93	60.3	0	1	90	0.00	29.857 
19:45	62.4	62.4	62.4	93	60.3	0	2	90	0.00	29.865 
19:50	62.6	62.6	62.6	94	60.8	0	2	90	0.00	29.865 
19:55	62.4	62.4	62.4	94	60.6	0	2	90	0.00	29.865 
20:00	62.4	62.4	62.4	94	60.6	0	1	90	0.00	29.846 
20:05	62.3	62.3	62.3	94	60.5	0	2	90	0.00	29.846 
20:10	62.1	62.1	62.1	94	60.3	1	3	90	0.00	29.846 
20:15	62.1	62.1	62.1	94	60.3	1	3	90	0.00	29.859 
20:20	62.1	62.1	62.1	94	60.3	0	0	---	0.00	29.859 
20:25	62.0	62.0	62.0	94	60.2	0	0	---	0.00	29.859 
20:30	62.0	62.0	62.0	94	60.2	0	3	90	0.00	29.871 
20:35	62.0	62.0	62.0	94	60.2	1	4	90	0.00	29.871 
20:40	61.8	61.8	61.8	94	60.1	2	6	90	0.00	29.871 
20:45	61.6	61.6	61.6	94	59.9	2	4	68	0.01	29.839 
20:50	61.6	61.6	61.6	94	59.9	2	4	68	0.00	29.839 
20:55	61.6	61.6	61.6	94	59.9	1	4	90	0.01	29.839 
21:00	61.5	61.5	61.5	95	60.1	1	2	90	0.01	29.843 
21:05	61.5	61.5	61.5	95	60.1	1	4	90	0.01	29.843 
21:10	61.5	61.5	61.5	95	60.1	1	4	90	0.00	29.843 
21:15	61.3	61.3	61.3	95	59.9	0	3	90	0.01	29.853 
21:20	61.3	61.3	61.3	95	59.9	0	2	90	0.00	29.853 
21:25	61.3	61.3	61.3	95	59.9	1	3	90	0.00	29.853 
21:30	61.2	61.2	61.2	95	59.8	1	3	90	0.00	29.900 
21:35	61.0	61.0	61.0	95	59.6	1	3	68	0.05	29.900 
21:40	60.9	60.9	60.9	95	59.5	0	2	0	0.13	29.900 
21:45	60.7	60.7	60.7	95	59.3	0	2	0	0.04	29.885 
21:50	60.7	60.7	60.7	95	59.3	0	2	0	0.00	29.885 
21:55	60.5	60.5	60.5	95	59.1	0	2	0	0.01	29.885 
22:00	60.5	60.5	60.5	95	59.1	0	1	0	0.00	29.908 
22:05	60.5	60.5	60.5	96	59.4	0	0	---	0.01	29.908 
22:10	60.5	60.5	60.5	96	59.4	0	2	0	0.01	29.908 
22:15	60.5	60.5	60.5	96	59.4	0	1	0	0.00	29.898 
22:20	60.5	60.5	60.5	96	59.4	0	1	0	0.00	29.898 
22:25	60.4	60.4	60.4	96	59.3	0	1	0	0.00	29.898 
22:30	60.4	60.4	60.4	96	59.3	0	2	0	0.00	29.903 
22:35	60.4	60.4	60.4	96	59.3	0	0	---	0.00	29.903 
22:40	60.4	60.4	60.4	96	59.3	0	0	---	0.00	29.903 
22:45	60.4	60.4	60.4	96	59.3	0	1	0	0.00	29.904 
22:50	60.2	60.2	60.2	96	59.1	0	2	0	0.00	29.904 
22:55	60.2	60.2	60.2	96	59.1	0	2	0	0.00	29.904 
23:00	60.2	60.2	60.2	96	59.1	0	2	0	0.00	29.895 
23:05	60.2	60.2	60.2	96	59.1	1	3	0	0.00	29.895 
23:10	60.1	60.1	60.1	96	59.0	0	1	0	0.00	29.895 
23:15	60.1	60.1	60.1	96	59.0	0	2	0	0.00	29.893 
23:20	60.1	60.1	60.1	96	59.0	0	2	0	0.00	29.893 
23:25	60.1	60.1	60.1	96	59.0	0	2	0	0.00	29.893 
23:30	60.1	60.1	60.1	96	59.0	1	3	0	0.00	29.885 
23:35	60.1	60.1	60.1	96	59.0	1	2	0	0.00	29.885 
23:40	60.1	60.1	60.1	96	59.0	1	2	0	0.00	29.885 
23:45	60.1	60.1	60.1	96	59.0	1	3	0	0.00	29.882 
23:50	60.1	60.1	60.1	96	59.0	1	3	112	0.00	29.882 
23:55	60.1	60.1	60.1	96	59.0	0	2	112	0.00	29.882 

CoCoRaHS
IN-AL-39
A2 Web Hosting
Creative Commons License
GoDaddy
search engine by freefind advanced

loaded 2018-11-13 16:58:09 • last modified 2010-11-18 10:43:29
Privacy PolicyDisclaimer
• wx.awcolley.com is powered by PmWiki v.2002016 •
• all content (unless otherwise noted) © 2018 A W Colley